Time;durP1;ratioP1;P1;durP2;ratioP2;P2;SDS_P1;SDS_P2;PMS_P1;PMS_P2;Temp;Humidity;BMP_temperature;BMP_pressure;BME280_temperature;BME280_humidity;BME280_pressure;Samples;Min_cycle;Max_cycle;Signal;HPM_P1;HPM_P2
2021/12/05 00:21:42;;;;;;;15.65;9.80;;;;;;;;;;5107242;28;20036;-74
2021/12/05 00:24:14;;;;;;;10.93;9.80;;;;;;;;;;5102390;28;20028;-73
2021/12/05 00:26:52;;;;;;;10.45;9.52;;;;;;;;;;5097070;28;20036;-74
2021/12/05 00:32:07;;;;;;;10.60;9.70;;;;;;;;;;5107168;28;20398;-73
2021/12/05 00:35:21;;;;;;;10.75;9.63;;;;;;;;;;5085221;28;20036;-74
2021/12/05 00:57:38;;;;;;;10.48;9.52;;;;;;;;;;5101779;28;20466;-73
2021/12/05 01:02:20;;;;;;;10.90;9.80;;;;;;;;;;5084117;28;20040;-74
2021/12/05 01:15:06;;;;;;;10.70;9.80;;;;;;;;;;5082566;28;20063;-73
2021/12/05 01:18:05;;;;;;;10.30;9.50;;;;;;;;;;5085257;28;20028;-74
2021/12/05 01:20:34;;;;;;;10.38;9.52;;;;;;;;;;5071989;28;20039;-74
2021/12/05 01:23:10;;;;;;;10.18;9.38;;;;;;;;;;5094656;28;20028;-73
2021/12/05 01:25:45;;;;;;;11.05;10.05;;;;;;;;;;5068410;28;20032;-73
2021/12/05 01:28:29;;;;;;;10.45;9.55;;;;;;;;;;5084241;28;20035;-73
2021/12/05 01:39:42;;;;;;;10.18;9.40;;;;;;;;;;5037719;28;20040;-73
2021/12/05 02:09:19;;;;;;;;;;;;;;;;;;5020227;28;20037;-73
2021/12/05 02:36:43;;;;;;;9.98;9.13;;;;;;;;;;5092237;27;20034;-73
2021/12/05 02:41:44;;;;;;;11.75;9.50;;;;;;;;;;5095322;28;20459;-73
2021/12/05 02:44:20;;;;;;;;;;;;;;;;;;5089687;28;20165;-73
2021/12/05 02:47:00;;;;;;;10.38;9.48;;;;;;;;;;5088494;28;19912;-73
2021/12/05 02:49:28;;;;;;;10.55;9.57;;;;;;;;;;5074246;28;20046;-73
2021/12/05 02:52:01;;;;;;;9.65;8.95;;;;;;;;;;5087791;28;20031;-73
2021/12/05 02:54:34;;;;;;;10.60;9.60;;;;;;;;;;5088318;28;20039;-73
2021/12/05 02:57:00;;;;;;;9.88;9.10;;;;;;;;;;5080991;28;20048;-73
2021/12/05 03:02:08;;;;;;;10.68;9.57;;;;;;;;;;5083632;28;20489;-73
2021/12/05 03:04:37;;;;;;;10.73;9.68;;;;;;;;;;5077552;28;20181;-73
2021/12/05 03:07:07;;;;;;;10.40;9.50;;;;;;;;;;5094634;27;20027;-73
2021/12/05 03:09:35;;;;;;;12.38;9.70;;;;;;;;;;5088010;28;20030;-73
2021/12/05 03:12:04;;;;;;;9.80;9.07;;;;;;;;;;5086262;28;20040;-73
2021/12/05 03:14:30;;;;;;;;;;;;;;;;;;5088277;28;20031;-73
2021/12/05 03:16:55;;;;;;;10.45;9.50;;;;;;;;;;5083963;28;19912;-73
2021/12/05 03:19:22;;;;;;;10.13;9.20;;;;;;;;;;5087641;28;20455;-73
2021/12/05 03:21:50;;;;;;;9.32;8.63;;;;;;;;;;5082426;28;20060;-73
2021/12/05 03:24:21;;;;;;;15.98;9.48;;;;;;;;;;5078403;28;20161;-74
2021/12/05 03:26:51;;;;;;;9.98;9.10;;;;;;;;;;5078597;28;20072;-73
2021/12/05 03:29:20;;;;;;;9.68;9.10;;;;;;;;;;5077222;28;20176;-73
2021/12/05 03:31:48;;;;;;;10.50;9.50;;;;;;;;;;5073897;28;20035;-73
2021/12/05 03:34:20;;;;;;;9.90;9.13;;;;;;;;;;5088543;28;20042;-73
2021/12/05 03:36:56;;;;;;;10.75;9.35;;;;;;;;;;5090337;28;20071;-74
2021/12/05 03:39:24;;;;;;;10.18;9.38;;;;;;;;;;5074610;28;20039;-74
2021/12/05 03:41:52;;;;;;;11.32;9.80;;;;;;;;;;5087329;28;20035;-73
2021/12/05 03:44:21;;;;;;;10.60;9.68;;;;;;;;;;5078499;28;20184;-73
2021/12/05 03:46:51;;;;;;;10.73;9.77;;;;;;;;;;5088375;28;20041;-73
2021/12/05 03:49:17;;;;;;;10.63;9.70;;;;;;;;;;5088594;28;20486;-73
2021/12/05 03:51:57;;;;;;;10.50;9.57;;;;;;;;;;5080874;28;20105;-73
2021/12/05 03:54:23;;;;;;;10.15;9.43;;;;;;;;;;5072843;28;20023;-76
2021/12/05 03:56:50;;;;;;;10.70;9.70;;;;;;;;;;5103471;28;20036;-73
2021/12/05 03:59:18;;;;;;;11.40;10.10;;;;;;;;;;5083206;28;20028;-73
2021/12/05 04:01:47;;;;;;;10.25;9.55;;;;;;;;;;5087744;28;20040;-76
2021/12/05 04:04:14;;;;;;;12.93;9.43;;;;;;;;;;5089098;28;20043;-74
2021/12/05 04:06:40;;;;;;;10.55;9.40;;;;;;;;;;5084384;28;20358;-73
2021/12/05 04:09:09;;;;;;;10.38;9.65;;;;;;;;;;5087934;28;20040;-73
2021/12/05 04:11:41;;;;;;;10.35;9.30;;;;;;;;;;5078357;28;20039;-73
2021/12/05 04:14:11;;;;;;;10.55;9.10;;;;;;;;;;5071380;28;20121;-73
2021/12/05 04:16:38;;;;;;;9.63;8.98;;;;;;;;;;5070095;28;20038;-73
2021/12/05 04:19:05;;;;;;;10.95;9.85;;;;;;;;;;5083266;28;20103;-73
2021/12/05 04:21:35;;;;;;;11.75;9.40;;;;;;;;;;5099251;28;20634;-73
2021/12/05 04:24:04;;;;;;;12.38;9.48;;;;;;;;;;5083898;28;20492;-74
2021/12/05 04:26:29;;;;;;;10.02;9.38;;;;;;;;;;5084093;28;20067;-74
2021/12/05 04:28:55;;;;;;;11.60;9.07;;;;;;;;;;5075529;28;20475;-73
2021/12/05 04:31:21;;;;;;;10.25;9.35;;;;;;;;;;5074806;28;20035;-74
2021/12/05 04:33:50;;;;;;;9.75;9.07;;;;;;;;;;5057795;28;20038;-73
2021/12/05 04:36:16;;;;;;;10.32;9.57;;;;;;;;;;5092541;28;20506;-73
2021/12/05 04:38:42;;;;;;;10.02;9.23;;;;;;;;;;5074407;28;20490;-73
2021/12/05 04:41:08;;;;;;;10.05;9.25;;;;;;;;;;5080105;28;20070;-74
2021/12/05 04:43:38;;;;;;;9.85;8.88;;;;;;;;;;5091464;28;20038;-74
2021/12/05 04:46:07;;;;;;;9.55;8.95;;;;;;;;;;5079407;28;20040;-74
2021/12/05 04:48:33;;;;;;;10.18;9.23;;;;;;;;;;5073392;28;20487;-73
2021/12/05 04:51:00;;;;;;;9.90;9.10;;;;;;;;;;5088564;28;20163;-73
2021/12/05 04:53:28;;;;;;;11.35;9.40;;;;;;;;;;5079375;28;20406;-74
2021/12/05 04:55:56;;;;;;;10.20;9.40;;;;;;;;;;5086730;28;20094;-74
2021/12/05 04:58:23;;;;;;;10.23;9.50;;;;;;;;;;5079209;28;20027;-74
2021/12/05 05:00:52;;;;;;;9.93;8.90;;;;;;;;;;5088317;28;20062;-73
2021/12/05 05:03:18;;;;;;;9.90;9.10;;;;;;;;;;5101833;28;20139;-76
2021/12/05 05:05:51;;;;;;;9.90;9.10;;;;;;;;;;5096081;27;20035;-74
2021/12/05 05:08:17;;;;;;;9.82;9.02;;;;;;;;;;5112335;27;20054;-76
2021/12/05 05:10:44;;;;;;;9.50;8.90;;;;;;;;;;5099116;28;20282;-76
2021/12/05 05:13:10;;;;;;;10.63;9.50;;;;;;;;;;5109970;28;20035;-73
2021/12/05 05:15:36;;;;;;;10.10;9.30;;;;;;;;;;5108130;28;20118;-74
2021/12/05 05:18:04;;;;;;;10.57;9.60;;;;;;;;;;5109579;28;20460;-74
2021/12/05 05:20:38;;;;;;;9.20;8.70;;;;;;;;;;5100045;28;20487;-73
2021/12/05 05:23:22;;;;;;;15.98;9.70;;;;;;;;;;5103049;28;20031;-73
2021/12/05 05:28:44;;;;;;;10.52;9.40;;;;;;;;;;5098829;28;20036;-74
2021/12/05 05:47:40;;;;;;;11.07;9.95;;;;;;;;;;5103805;28;20049;-73
2021/12/05 05:50:06;;;;;;;10.90;9.90;;;;;;;;;;5095058;28;20035;-73
2021/12/05 05:52:33;;;;;;;10.63;9.73;;;;;;;;;;5089832;28;20070;-73
2021/12/05 05:55:00;;;;;;;11.18;10.10;;;;;;;;;;5088393;28;20035;-73
2021/12/05 06:05:12;;;;;;;9.73;9.10;;;;;;;;;;5098687;28;20032;-73
2021/12/05 06:07:43;;;;;;;10.27;9.48;;;;;;;;;;5107270;27;20035;-73
2021/12/05 06:10:11;;;;;;;10.05;9.05;;;;;;;;;;5116760;27;20043;-73
2021/12/05 06:12:38;;;;;;;10.23;9.43;;;;;;;;;;5100643;28;20024;-73
2021/12/05 06:15:05;;;;;;;10.10;9.30;;;;;;;;;;5095900;28;20043;-73
2021/12/05 06:17:31;;;;;;;10.50;9.38;;;;;;;;;;5093476;28;20069;-73
2021/12/05 06:19:58;;;;;;;10.80;9.70;;;;;;;;;;5095253;28;20051;-73
2021/12/05 06:22:23;;;;;;;10.20;9.40;;;;;;;;;;5085243;28;20036;-73
2021/12/05 06:24:49;;;;;;;10.90;9.85;;;;;;;;;;5072272;28;20321;-74
2021/12/05 06:27:15;;;;;;;10.63;9.50;;;;;;;;;;5096966;28;20544;-73
2021/12/05 06:29:48;;;;;;;9.48;8.77;;;;;;;;;;5091507;28;20480;-73
2021/12/05 06:37:49;;;;;;;10.63;9.60;;;;;;;;;;5095473;28;20153;-73
2021/12/05 06:43:16;;;;;;;10.38;9.50;;;;;;;;;;5102891;28;20032;-73
2021/12/05 06:48:26;;;;;;;10.88;9.88;;;;;;;;;;5096379;28;20051;-72
2021/12/05 06:50:52;;;;;;;10.23;9.43;;;;;;;;;;5093765;28;20434;-72
2021/12/05 06:53:17;;;;;;;10.23;9.45;;;;;;;;;;5095415;28;20253;-72
2021/12/05 06:55:43;;;;;;;10.13;9.43;;;;;;;;;;5099811;28;20032;-72
2021/12/05 06:58:09;;;;;;;10.52;9.52;;;;;;;;;;5094354;28;20046;-72
2021/12/05 07:00:35;;;;;;;10.93;9.90;;;;;;;;;;5093217;28;20031;-73
2021/12/05 07:03:01;;;;;;;10.18;9.20;;;;;;;;;;5092993;28;20039;-73
2021/12/05 07:07:52;;;;;;;14.88;9.45;;;;;;;;;;5107599;27;20027;-72
2021/12/05 07:10:19;;;;;;;10.32;9.32;;;;;;;;;;5096737;28;20032;-73
2021/12/05 07:15:31;;;;;;;9.65;8.90;;;;;;;;;;5095161;28;20031;-72
2021/12/05 07:42:35;;;;;;;10.32;9.30;;;;;;;;;;5035144;28;20556;-73
2021/12/05 07:45:04;;;;;;;9.82;9.23;;;;;;;;;;5034982;28;20083;-72
2021/12/05 07:47:32;;;;;;;10.50;9.65;;;;;;;;;;5036511;28;20149;-72
2021/12/05 07:50:05;;;;;;;11.82;9.63;;;;;;;;;;5036356;28;20033;-73
2021/12/05 07:52:32;;;;;;;14.68;10.15;;;;;;;;;;5035882;28;20041;-72
2021/12/05 07:55:11;;;;;;;9.90;8.93;;;;;;;;;;5036118;28;20128;-72
2021/12/05 07:58:02;;;;;;;10.90;9.00;;;;;;;;;;5037880;28;20785;-73
2021/12/05 08:00:38;;;;;;;10.68;9.98;;;;;;;;;;5058755;28;20210;-72
2021/12/05 08:16:49;;;;;;;10.93;10.20;;;;;;;;;;5096020;28;20023;-73
2021/12/05 08:19:15;;;;;;;11.20;10.20;;;;;;;;;;5097928;28;20031;-72
2021/12/05 08:21:41;;;;;;;10.80;9.90;;;;;;;;;;5099865;28;20039;-72
2021/12/05 08:24:07;;;;;;;11.15;10.35;;;;;;;;;;5099642;28;20039;-72
2021/12/05 08:26:34;;;;;;;10.45;9.57;;;;;;;;;;5099859;28;20032;-72
2021/12/05 08:29:16;;;;;;;10.70;9.93;;;;;;;;;;5097136;28;20028;-72
2021/12/05 08:42:37;;;;;;;12.55;11.30;;;;;;;;;;5105386;28;20500;-72
2021/12/05 10:10:09;;;;;;;11.65;10.85;;;;;;;;;;5109156;27;20032;-74
2021/12/05 10:14:51;;;;;;;11.20;10.38;;;;;;;;;;5100962;28;20067;-74
2021/12/05 10:37:15;;;;;;;11.43;10.60;;;;;;;;;;5097747;27;20066;-72
2021/12/05 10:39:41;;;;;;;11.32;10.60;;;;;;;;;;5094562;28;20115;-72
2021/12/05 10:42:59;;;;;;;10.93;10.20;;;;;;;;;;5091880;28;20122;-73
2021/12/05 10:45:30;;;;;;;10.95;10.25;;;;;;;;;;5096491;28;20047;-73
2021/12/05 10:47:57;;;;;;;11.30;10.40;;;;;;;;;;5100380;28;20046;-73
2021/12/05 10:50:43;;;;;;;11.10;10.40;;;;;;;;;;5098789;28;20064;-73
2021/12/05 10:53:33;;;;;;;10.63;9.93;;;;;;;;;;5099427;28;20040;-73
2021/12/05 10:56:30;;;;;;;9.93;9.32;;;;;;;;;;5081664;28;20027;-73
2021/12/05 10:59:01;;;;;;;11.10;10.40;;;;;;;;;;5076349;27;20795;-73
2021/12/05 11:01:32;;;;;;;11.60;10.65;;;;;;;;;;5090484;28;20036;-73
2021/12/05 11:04:01;;;;;;;11.80;10.90;;;;;;;;;;5092418;28;20035;-73
2021/12/05 11:06:35;;;;;;;11.75;10.93;;;;;;;;;;5098359;27;20399;-73
2021/12/05 11:09:13;;;;;;;11.57;10.73;;;;;;;;;;5081785;28;20302;-73
2021/12/05 11:11:43;;;;;;;11.18;10.48;;;;;;;;;;5095860;28;20046;-73
2021/12/05 11:14:19;;;;;;;10.88;10.10;;;;;;;;;;5092597;28;20036;-73
2021/12/05 11:19:50;;;;;;;11.85;10.95;;;;;;;;;;5051895;23;20511;-77
2021/12/05 11:22:24;;;;;;;12.32;11.52;;;;;;;;;;5042976;28;20040;-76
2021/12/05 11:25:00;;;;;;;11.90;11.10;;;;;;;;;;5028959;28;20025;-76
2021/12/05 11:27:35;;;;;;;10.80;10.15;;;;;;;;;;5022140;28;20071;-76
2021/12/05 11:30:13;;;;;;;11.63;10.88;;;;;;;;;;5009892;28;20102;-77
2021/12/05 11:32:58;;;;;;;11.48;10.77;;;;;;;;;;5013519;28;20054;-74
2021/12/05 11:35:51;;;;;;;11.55;10.75;;;;;;;;;;4972482;28;20129;-77
2021/12/05 11:38:28;;;;;;;11.52;10.73;;;;;;;;;;4996766;28;20496;-75
2021/12/05 11:41:06;;;;;;;11.60;10.80;;;;;;;;;;5013746;28;20041;-77
2021/12/05 11:43:37;;;;;;;11.27;10.55;;;;;;;;;;5006999;28;20122;-77
2021/12/05 11:46:08;;;;;;;11.65;10.85;;;;;;;;;;4996358;28;20061;-76
2021/12/05 11:48:47;;;;;;;12.00;11.10;;;;;;;;;;5011422;28;20042;-77
2021/12/05 11:51:33;;;;;;;12.43;11.40;;;;;;;;;;5006740;28;20026;-76
2021/12/05 11:54:08;;;;;;;11.02;10.32;;;;;;;;;;4988904;28;20161;-76
2021/12/05 11:56:33;;;;;;;11.77;10.88;;;;;;;;;;5011296;28;20030;-77
2021/12/05 11:59:11;;;;;;;11.25;10.45;;;;;;;;;;4996881;28;20723;-75
2021/12/05 12:01:41;;;;;;;11.40;10.70;;;;;;;;;;4999915;28;20041;-77
2021/12/05 12:04:10;;;;;;;11.10;10.38;;;;;;;;;;5005882;28;20046;-76
2021/12/05 12:06:36;;;;;;;11.05;10.35;;;;;;;;;;5005206;28;20156;-76
2021/12/05 12:09:03;;;;;;;10.50;9.90;;;;;;;;;;4989962;28;20516;-76
2021/12/05 12:11:30;;;;;;;11.75;10.73;;;;;;;;;;5002328;28;20165;-76
2021/12/05 12:13:55;;;;;;;10.95;10.13;;;;;;;;;;4998630;28;20033;-77
2021/12/05 12:16:22;;;;;;;10.60;10.00;;;;;;;;;;5004580;28;20033;-76
2021/12/05 12:18:50;;;;;;;11.50;10.50;;;;;;;;;;4995363;28;20033;-76
2021/12/05 12:21:26;;;;;;;11.75;10.70;;;;;;;;;;4985107;28;20073;-73
2021/12/05 12:23:56;;;;;;;11.18;10.38;;;;;;;;;;5013063;28;20420;-77
2021/12/05 12:26:24;;;;;;;11.70;11.00;;;;;;;;;;4993308;28;20053;-75
2021/12/05 12:28:51;;;;;;;11.60;10.80;;;;;;;;;;5009550;28;20041;-76
2021/12/05 12:31:28;;;;;;;11.48;10.48;;;;;;;;;;5004373;28;20062;-76
2021/12/05 12:33:57;;;;;;;11.25;10.45;;;;;;;;;;4994571;28;20038;-77
2021/12/05 12:36:38;;;;;;;10.80;10.20;;;;;;;;;;5003046;28;20652;-77
2021/12/05 12:39:26;;;;;;;11.30;10.35;;;;;;;;;;5005552;28;20029;-76
2021/12/05 12:42:23;;;;;;;11.43;10.73;;;;;;;;;;5003965;28;20493;-77
2021/12/05 12:45:12;;;;;;;11.50;10.70;;;;;;;;;;5014839;28;20083;-75
2021/12/05 12:47:59;;;;;;;10.90;10.30;;;;;;;;;;5025312;28;20056;-77
2021/12/05 12:50:36;;;;;;;10.32;9.63;;;;;;;;;;4991346;28;20030;-77
2021/12/05 12:53:08;;;;;;;10.60;9.90;;;;;;;;;;4991997;28;20083;-77
2021/12/05 12:55:36;;;;;;;10.05;9.35;;;;;;;;;;5017057;28;20045;-77
2021/12/05 12:58:05;;;;;;;10.43;9.57;;;;;;;;;;4988622;28;20042;-74
2021/12/05 13:00:33;;;;;;;10.00;9.35;;;;;;;;;;4991259;28;20041;-75
2021/12/05 13:03:12;;;;;;;11.65;10.85;;;;;;;;;;5021071;28;20045;-76
2021/12/05 13:11:24;;;;;;;10.30;9.65;;;;;;;;;;5011835;28;20095;-77
2021/12/05 13:14:02;;;;;;;10.48;9.80;;;;;;;;;;5018912;28;20037;-76
2021/12/05 13:16:32;;;;;;;10.32;9.77;;;;;;;;;;4991768;28;20050;-76
2021/12/05 13:19:06;;;;;;;11.40;10.70;;;;;;;;;;5007778;28;20524;-78
2021/12/05 13:21:38;;;;;;;11.50;10.55;;;;;;;;;;5005648;28;20048;-77
2021/12/05 13:24:27;;;;;;;11.43;10.70;;;;;;;;;;5014509;28;20031;-78
2021/12/05 13:27:05;;;;;;;11.70;10.88;;;;;;;;;;5002077;28;20088;-77
2021/12/05 13:29:37;;;;;;;11.38;10.68;;;;;;;;;;5011127;28;20623;-76
2021/12/05 13:32:06;;;;;;;10.52;9.90;;;;;;;;;;4996930;28;20111;-76
2021/12/05 13:34:40;;;;;;;10.57;9.98;;;;;;;;;;5002527;28;20038;-77
2021/12/05 13:37:06;;;;;;;32.95;27.92;;;;;;;;;;5002954;28;20037;-76
2021/12/05 13:39:47;;;;;;;40.45;31.10;;;;;;;;;;5006365;28;20084;-76
2021/12/05 13:42:48;;;;;;;12.30;11.40;;;;;;;;;;5020678;28;20120;-76
2021/12/05 13:45:14;;;;;;;69.25;36.03;;;;;;;;;;4981533;28;20096;-76
2021/12/05 13:47:52;;;;;;;18.75;16.52;;;;;;;;;;4998875;28;20042;-76
2021/12/05 13:50:39;;;;;;;22.33;17.63;;;;;;;;;;5001000;28;20513;-76
2021/12/05 13:53:03;;;;;;;12.00;11.00;;;;;;;;;;4994005;28;20043;-76
2021/12/05 13:55:51;;;;;;;42.20;30.38;;;;;;;;;;5007051;28;20087;-76
2021/12/05 13:58:32;;;;;;;11.18;10.38;;;;;;;;;;5021417;28;20037;-77
2021/12/05 14:01:04;;;;;;;24.60;16.63;;;;;;;;;;4984834;28;20041;-76
2021/12/05 14:03:53;;;;;;;16.45;13.68;;;;;;;;;;5009720;28;20049;-77
2021/12/05 14:06:39;;;;;;;95.30;42.95;;;;;;;;;;5013672;28;20383;-76
2021/12/05 14:09:20;;;;;;;66.65;33.35;;;;;;;;;;5002204;28;20092;-76
2021/12/05 14:11:54;;;;;;;28.08;18.70;;;;;;;;;;5007326;28;20116;-76
2021/12/05 14:14:48;;;;;;;81.38;28.85;;;;;;;;;;5009519;28;20068;-77
2021/12/05 14:17:24;;;;;;;62.65;19.77;;;;;;;;;;4993623;28;20505;-76
2021/12/05 14:20:19;;;;;;;19.35;11.75;;;;;;;;;;4987634;28;20114;-76
2021/12/05 14:22:47;;;;;;;26.13;12.57;;;;;;;;;;4988166;28;20042;-76
2021/12/05 14:25:19;;;;;;;16.13;11.80;;;;;;;;;;4982284;28;20042;-77
2021/12/05 14:27:49;;;;;;;11.20;10.40;;;;;;;;;;4987568;28;20297;-77
2021/12/05 14:30:21;;;;;;;171.38;78.05;;;;;;;;;;4983141;28;20454;-76
2021/12/05 14:32:49;;;;;;;27.33;20.55;;;;;;;;;;4996999;28;20037;-76
2021/12/05 14:35:18;;;;;;;12.45;11.35;;;;;;;;;;4972548;28;20093;-76
2021/12/05 14:37:45;;;;;;;;;;;;;;;;;;4994842;28;20109;-76
2021/12/05 14:40:21;;;;;;;14.18;11.73;;;;;;;;;;4967662;28;19945;-76
2021/12/05 14:42:51;;;;;;;15.68;11.60;;;;;;;;;;4983728;28;20054;-76
2021/12/05 14:45:23;;;;;;;80.57;25.20;;;;;;;;;;4977870;28;20037;-77
2021/12/05 14:47:51;;;;;;;36.75;16.30;;;;;;;;;;4990886;28;20045;-77
2021/12/05 14:50:27;;;;;;;52.80;16.90;;;;;;;;;;4980818;28;20044;-76
2021/12/05 14:52:55;;;;;;;60.05;17.60;;;;;;;;;;4981657;28;20049;-77
2021/12/05 14:55:24;;;;;;;18.55;11.65;;;;;;;;;;4986100;28;20188;-76
2021/12/05 14:57:56;;;;;;;11.65;10.75;;;;;;;;;;4981122;28;20142;-76
2021/12/05 15:00:28;;;;;;;11.18;10.18;;;;;;;;;;4968936;28;20034;-75
2021/12/05 15:03:16;;;;;;;15.52;11.90;;;;;;;;;;4992577;28;20061;-76
2021/12/05 15:05:45;;;;;;;12.10;10.88;;;;;;;;;;4975262;28;20034;-76
2021/12/05 15:08:13;;;;;;;15.98;12.10;;;;;;;;;;4964337;28;20078;-76
2021/12/05 15:10:42;;;;;;;14.30;11.40;;;;;;;;;;4977681;28;20081;-75
2021/12/05 15:13:09;;;;;;;10.80;9.93;;;;;;;;;;4994559;28;20108;-76
2021/12/05 15:15:35;;;;;;;11.40;10.55;;;;;;;;;;4981353;28;20039;-75
2021/12/05 15:18:02;;;;;;;11.65;10.65;;;;;;;;;;4995502;28;20033;-75
2021/12/05 15:20:30;;;;;;;11.15;10.35;;;;;;;;;;5015620;28;20129;-76
2021/12/05 15:23:03;;;;;;;11.25;10.35;;;;;;;;;;4988035;28;20121;-75
2021/12/05 15:25:30;;;;;;;10.85;10.00;;;;;;;;;;4996328;28;20034;-75
2021/12/05 15:27:57;;;;;;;12.13;10.95;;;;;;;;;;5014660;28;20116;-76
2021/12/05 15:30:27;;;;;;;12.85;11.55;;;;;;;;;;5020420;28;20049;-76
2021/12/05 15:32:56;;;;;;;12.57;11.27;;;;;;;;;;5005162;28;20049;-76
2021/12/05 15:35:23;;;;;;;11.52;10.65;;;;;;;;;;5001669;28;20137;-76
2021/12/05 15:37:51;;;;;;;12.48;11.18;;;;;;;;;;5018430;28;20520;-75
2021/12/05 15:40:18;;;;;;;11.90;10.80;;;;;;;;;;5001898;28;20029;-75
2021/12/05 15:42:44;;;;;;;11.90;10.82;;;;;;;;;;4969673;28;20066;-76
2021/12/05 15:45:13;;;;;;;11.85;10.75;;;;;;;;;;5012714;28;20111;-76
2021/12/05 15:47:40;;;;;;;11.68;10.77;;;;;;;;;;5004918;28;20103;-76
2021/12/05 15:50:23;;;;;;;11.80;11.00;;;;;;;;;;4997854;28;20042;-75
2021/12/05 15:52:52;;;;;;;12.15;11.05;;;;;;;;;;4989798;28;20501;-76
2021/12/05 15:55:35;;;;;;;12.05;11.13;;;;;;;;;;5006769;28;20038;-76
2021/12/05 15:58:08;;;;;;;11.68;10.60;;;;;;;;;;5006604;28;20484;-76
2021/12/05 16:00:59;;;;;;;12.68;11.40;;;;;;;;;;4990776;28;20042;-76
2021/12/05 16:03:36;;;;;;;39.05;14.38;;;;;;;;;;4998561;28;20095;-74
2021/12/05 16:06:04;;;;;;;54.92;18.83;;;;;;;;;;4992839;28;20095;-77
2021/12/05 16:08:31;;;;;;;77.18;20.83;;;;;;;;;;5007194;28;20076;-76
2021/12/05 16:10:59;;;;;;;55.55;18.13;;;;;;;;;;4989210;28;20065;-76
2021/12/05 16:13:32;;;;;;;16.50;13.88;;;;;;;;;;5002701;28;20030;-76
2021/12/05 16:16:13;;;;;;;15.50;13.15;;;;;;;;;;4995443;28;20034;-76
2021/12/05 16:18:43;;;;;;;18.98;15.20;;;;;;;;;;4995088;28;20045;-77
2021/12/05 16:21:15;;;;;;;14.40;13.00;;;;;;;;;;4994431;28;20494;-75
2021/12/05 16:23:41;;;;;;;16.98;13.52;;;;;;;;;;5007739;28;20662;-76
2021/12/05 16:26:11;;;;;;;30.58;18.63;;;;;;;;;;4983074;28;20045;-76
2021/12/05 16:28:47;;;;;;;11.25;10.38;;;;;;;;;;5004499;28;20116;-75
2021/12/05 16:31:17;;;;;;;11.40;10.38;;;;;;;;;;4999440;28;20034;-74
2021/12/05 16:33:45;;;;;;;;;;;;;;;;;;5004528;28;20095;-76
2021/12/05 16:36:11;;;;;;;11.45;10.57;;;;;;;;;;5002904;28;20439;-76
2021/12/05 16:38:43;;;;;;;11.40;10.52;;;;;;;;;;5003930;28;20109;-77
2021/12/05 16:41:13;;;;;;;11.95;11.02;;;;;;;;;;4999988;28;20030;-75
2021/12/05 16:43:50;;;;;;;19.40;16.13;;;;;;;;;;4997562;28;20069;-77
2021/12/05 16:46:24;;;;;;;14.00;12.73;;;;;;;;;;5000589;28;20041;-75
2021/12/05 16:48:50;;;;;;;14.70;12.95;;;;;;;;;;4997482;28;20030;-77
2021/12/05 16:51:18;;;;;;;11.95;11.02;;;;;;;;;;5000302;28;20058;-75
2021/12/05 16:53:47;;;;;;;13.00;11.73;;;;;;;;;;4976012;28;20029;-75
2021/12/05 16:56:17;;;;;;;16.73;15.13;;;;;;;;;;5011563;28;20515;-75
2021/12/05 16:58:44;;;;;;;15.55;14.02;;;;;;;;;;5000838;28;20046;-77
2021/12/05 17:01:18;;;;;;;15.20;13.60;;;;;;;;;;4995374;28;20061;-75
2021/12/05 17:03:45;;;;;;;15.00;13.50;;;;;;;;;;4994764;28;20062;-78
2021/12/05 17:06:11;;;;;;;11.73;10.82;;;;;;;;;;5004535;28;20037;-77
2021/12/05 17:08:45;;;;;;;12.38;11.18;;;;;;;;;;5004390;28;20040;-77
2021/12/05 17:11:17;;;;;;;12.65;11.43;;;;;;;;;;4990803;28;20109;-77
2021/12/05 17:13:54;;;;;;;12.35;11.30;;;;;;;;;;4996194;28;20034;-76
2021/12/05 17:16:24;;;;;;;12.32;11.30;;;;;;;;;;4992936;28;20121;-77
2021/12/05 17:18:53;;;;;;;13.02;11.80;;;;;;;;;;4992519;28;20038;-76
2021/12/05 17:21:27;;;;;;;12.50;11.43;;;;;;;;;;5003999;28;20034;-76
2021/12/05 17:23:59;;;;;;;12.73;11.68;;;;;;;;;;4993924;28;20550;-77
2021/12/05 17:26:31;;;;;;;15.05;12.68;;;;;;;;;;5003787;28;20116;-76
2021/12/05 17:29:08;;;;;;;13.40;12.15;;;;;;;;;;5004410;28;20026;-75
2021/12/05 17:31:42;;;;;;;14.35;12.95;;;;;;;;;;5000748;28;20069;-75
2021/12/05 17:34:11;;;;;;;14.77;13.32;;;;;;;;;;5017621;28;20041;-75
2021/12/05 17:36:42;;;;;;;14.13;12.57;;;;;;;;;;5012936;28;20041;-75
2021/12/05 17:39:21;;;;;;;17.98;15.68;;;;;;;;;;5020047;23;20046;-72
2021/12/05 17:41:49;;;;;;;14.73;13.45;;;;;;;;;;5003857;28;20116;-72
2021/12/05 17:44:17;;;;;;;15.00;13.50;;;;;;;;;;5011151;28;20124;-72
2021/12/05 17:46:45;;;;;;;15.02;13.63;;;;;;;;;;5001474;28;20722;-72
2021/12/05 17:49:14;;;;;;;14.13;12.90;;;;;;;;;;4998426;28;20125;-72
2021/12/05 17:51:41;;;;;;;19.20;14.00;;;;;;;;;;5013204;28;20045;-72
2021/12/05 17:54:28;;;;;;;15.00;13.50;;;;;;;;;;5006533;28;20073;-73
2021/12/05 17:56:56;;;;;;;19.83;16.08;;;;;;;;;;4979707;28;20137;-72
2021/12/05 17:59:26;;;;;;;18.50;15.40;;;;;;;;;;5005954;28;20121;-72
2021/12/05 18:04:42;;;;;;;20.45;15.13;;;;;;;;;;5007273;28;20038;-72
2021/12/05 18:07:09;;;;;;;27.27;18.88;;;;;;;;;;5001012;28;20029;-72
2021/12/05 18:09:35;;;;;;;16.15;14.65;;;;;;;;;;5003635;28;20104;-72
2021/12/05 18:12:02;;;;;;;14.10;12.88;;;;;;;;;;5018573;28;20108;-72
2021/12/05 18:14:28;;;;;;;13.95;12.85;;;;;;;;;;5018647;28;20037;-72
2021/12/05 18:16:54;;;;;;;12.85;11.85;;;;;;;;;;4973841;28;20052;-73
2021/12/05 18:19:20;;;;;;;22.33;16.40;;;;;;;;;;4983391;28;20036;-72
2021/12/05 18:21:49;;;;;;;15.40;13.90;;;;;;;;;;5006388;28;20666;-72
2021/12/05 18:24:18;;;;;;;14.90;13.60;;;;;;;;;;4993980;28;20057;-72
2021/12/05 18:26:45;;;;;;;15.10;13.80;;;;;;;;;;5000773;28;20038;-72
2021/12/05 18:29:13;;;;;;;13.00;11.82;;;;;;;;;;5005261;28;20045;-72
2021/12/05 18:31:39;;;;;;;16.08;13.98;;;;;;;;;;4999932;28;20413;-72
2021/12/05 18:34:13;;;;;;;12.60;11.45;;;;;;;;;;5008512;28;20521;-72
2021/12/05 18:36:40;;;;;;;13.75;12.45;;;;;;;;;;5000184;28;20297;-72
2021/12/05 18:39:10;;;;;;;13.75;12.40;;;;;;;;;;4999351;28;20037;-73
2021/12/05 18:41:37;;;;;;;14.05;12.85;;;;;;;;;;5004296;28;20030;-72
2021/12/05 18:44:09;;;;;;;15.18;13.88;;;;;;;;;;5010289;28;20029;-72
2021/12/05 18:46:35;;;;;;;14.57;13.07;;;;;;;;;;5002888;28;20061;-72
2021/12/05 18:49:01;;;;;;;14.65;13.25;;;;;;;;;;5008301;28;20029;-73
2021/12/05 18:51:26;;;;;;;17.40;15.60;;;;;;;;;;5015329;28;20406;-72
2021/12/05 18:53:52;;;;;;;19.98;16.05;;;;;;;;;;4989169;28;20537;-72
2021/12/05 18:56:18;;;;;;;15.55;14.05;;;;;;;;;;5001239;28;20112;-72
2021/12/05 18:58:44;;;;;;;14.18;13.07;;;;;;;;;;5011998;28;20036;-72
2021/12/05 19:06:51;;;;;;;14.10;13.00;;;;;;;;;;5001326;28;20388;-71
2021/12/05 19:11:59;;;;;;;14.25;12.95;;;;;;;;;;5008556;28;20041;-71
2021/12/05 19:14:29;;;;;;;14.38;12.90;;;;;;;;;;5003554;28;20040;-71
2021/12/05 19:17:01;;;;;;;14.25;13.05;;;;;;;;;;4996728;28;20423;-72
2021/12/05 19:19:28;;;;;;;13.65;12.55;;;;;;;;;;5017448;28;20479;-72
2021/12/05 19:21:57;;;;;;;16.20;14.75;;;;;;;;;;4999130;28;20691;-71
2021/12/05 19:24:22;;;;;;;14.18;13.10;;;;;;;;;;4993301;28;20085;-71
2021/12/05 19:26:50;;;;;;;14.88;13.57;;;;;;;;;;5010210;28;20053;-71
2021/12/05 19:29:17;;;;;;;13.85;12.75;;;;;;;;;;5006540;28;20535;-71
2021/12/05 19:31:43;;;;;;;13.60;12.60;;;;;;;;;;4998499;28;20079;-71
2021/12/05 19:34:10;;;;;;;15.57;14.00;;;;;;;;;;5004060;28;20033;-72
2021/12/05 19:36:36;;;;;;;13.27;12.27;;;;;;;;;;5006562;28;20529;-72
2021/12/05 19:39:04;;;;;;;15.70;14.25;;;;;;;;;;4998735;28;20037;-71
2021/12/05 19:41:30;;;;;;;14.95;13.52;;;;;;;;;;5012804;28;20603;-72
2021/12/05 19:43:57;;;;;;;13.18;12.07;;;;;;;;;;5028878;28;20033;-73
2021/12/05 19:46:24;;;;;;;13.20;12.20;;;;;;;;;;5010749;28;20388;-72
2021/12/05 19:48:50;;;;;;;12.90;11.90;;;;;;;;;;4999367;28;20065;-72
2021/12/05 19:51:19;;;;;;;14.45;13.23;;;;;;;;;;5005865;28;20030;-71
2021/12/05 19:53:46;;;;;;;15.80;14.43;;;;;;;;;;5014881;28;20041;-71
2021/12/05 19:56:14;;;;;;;17.17;15.32;;;;;;;;;;5005877;28;20041;-72
2021/12/05 19:58:41;;;;;;;14.70;13.40;;;;;;;;;;5011682;28;20041;-71
2021/12/05 20:01:07;;;;;;;16.17;14.57;;;;;;;;;;5004986;28;20117;-71
2021/12/05 20:03:35;;;;;;;18.23;16.33;;;;;;;;;;5005268;28;20118;-71
2021/12/05 20:06:01;;;;;;;17.02;15.38;;;;;;;;;;4998652;28;20035;-71
2021/12/05 20:08:27;;;;;;;19.35;16.23;;;;;;;;;;5013045;28;20381;-71
2021/12/05 20:10:53;;;;;;;17.27;15.65;;;;;;;;;;4991927;28;20544;-71
2021/12/05 20:13:19;;;;;;;17.05;15.30;;;;;;;;;;5006739;28;20046;-72
2021/12/05 20:15:45;;;;;;;17.58;14.52;;;;;;;;;;5014861;28;20401;-71
2021/12/05 20:18:14;;;;;;;16.65;15.10;;;;;;;;;;5004454;28;20472;-71
2021/12/05 20:20:43;;;;;;;16.33;14.82;;;;;;;;;;5010591;28;20096;-72
2021/12/05 20:23:12;;;;;;;15.30;14.00;;;;;;;;;;4993300;28;20034;-71
2021/12/05 20:25:39;;;;;;;16.92;15.25;;;;;;;;;;5010476;28;20133;-72
2021/12/05 20:28:05;;;;;;;18.27;16.60;;;;;;;;;;5009743;28;20604;-72